Time;durP1;ratioP1;P1;durP2;ratioP2;P2;SDS_P1;SDS_P2;PMS_P1;PMS_P2;Temp;Humidity;BMP_temperature;BMP_pressure;BME280_temperature;BME280_humidity;BME280_pressure;Samples;Min_cycle;Max_cycle;Signal;HPM_P1;HPM_P2
2023/10/01 00:01:40;;;;;;;4.47;4.07;;;20.10;63.40;21.10;101672.00;;;;5009371;28;20206;-47
2023/10/01 00:04:07;;;;;;;5.00;4.20;;;20.20;64.20;21.10;101666.00;;;;5024146;28;20199;-47
2023/10/01 00:06:36;;;;;;;4.80;4.30;;;20.20;63.40;21.10;101678.00;;;;5014753;28;20594;-48
2023/10/01 00:09:08;;;;;;;4.27;3.73;;;20.10;63.10;21.10;101675.00;;;;5010868;28;20328;-48
2023/10/01 00:11:37;;;;;;;5.33;4.50;;;20.00;63.90;21.10;101668.00;;;;5008250;28;20186;-47
2023/10/01 00:14:06;;;;;;;6.13;4.27;;;20.10;63.80;21.00;101675.00;;;;5008665;28;20184;-46
2023/10/01 00:16:32;;;;;;;5.17;4.60;;;20.10;64.10;21.00;101677.00;;;;5008299;28;20562;-47
2023/10/01 00:18:59;;;;;;;5.27;4.17;;;20.10;63.50;21.00;101672.00;;;;5008056;28;20205;-47
2023/10/01 00:21:27;;;;;;;5.47;4.50;;;20.10;63.70;21.00;101666.00;;;;5008324;28;20618;-47
2023/10/01 00:23:54;;;;;;;4.80;4.30;;;20.00;63.60;21.00;101675.00;;;;5008193;28;20235;-47
2023/10/01 00:26:20;;;;;;;5.20;4.33;;;20.10;63.50;21.00;101682.00;;;;5008466;28;20265;-47
2023/10/01 00:28:45;;;;;;;4.43;4.03;;;20.10;63.80;21.00;101682.00;;;;5008041;28;20317;-47
2023/10/01 00:31:11;;;;;;;4.77;4.27;;;20.10;63.60;21.00;101675.00;;;;5008242;28;20179;-47
2023/10/01 00:33:37;;;;;;;4.73;4.30;;;20.10;63.70;21.00;101680.00;;;;5008080;28;20262;-48
2023/10/01 00:36:03;;;;;;;4.97;3.83;;;20.00;63.70;20.90;101683.00;;;;5008291;28;20544;-48
2023/10/01 00:38:29;;;;;;;5.70;4.63;;;20.00;64.10;20.90;101689.00;;;;5008277;28;20516;-47
2023/10/01 00:40:55;;;;;;;5.17;4.40;;;20.00;63.80;20.90;101681.00;;;;5008529;28;20187;-47
2023/10/01 00:43:25;;;;;;;5.27;4.67;;;20.00;63.70;20.90;101682.00;;;;5008251;28;20322;-48
2023/10/01 00:45:52;;;;;;;4.90;4.40;;;19.90;63.80;20.90;101680.00;;;;5008461;28;20195;-47
2023/10/01 00:48:18;;;;;;;5.13;4.20;;;19.90;63.80;20.90;101677.00;;;;5008482;28;20179;-46
2023/10/01 00:50:44;;;;;;;5.53;4.37;;;20.00;64.10;20.80;101677.00;;;;4990872;28;20193;-47
2023/10/01 00:53:10;;;;;;;5.43;4.33;;;20.00;63.70;20.80;101665.00;;;;5007100;28;20211;-47
2023/10/01 00:55:37;;;;;;;5.73;4.20;;;20.00;63.70;20.80;101656.00;;;;5006879;28;20203;-48
2023/10/01 00:58:03;;;;;;;4.83;4.33;;;20.00;63.50;20.80;101659.00;;;;5007874;28;20176;-48
2023/10/01 01:00:29;;;;;;;4.47;4.07;;;19.90;63.40;20.80;101660.00;;;;5008366;28;20547;-47
2023/10/01 01:03:00;;;;;;;5.10;4.47;;;19.70;63.80;20.80;101651.00;;;;5008277;28;20205;-47
2023/10/01 01:05:35;;;;;;;4.90;4.40;;;19.70;64.50;20.70;101654.00;;;;4976208;28;20195;-47
2023/10/01 01:08:21;;;;;;;4.47;4.07;;;19.70;64.10;20.70;101659.00;;;;5006599;28;20590;-48
2023/10/01 01:10:48;;;;;;;4.67;4.23;;;19.80;64.10;20.70;101664.00;;;;5008072;28;20179;-47
2023/10/01 01:13:16;;;;;;;6.33;4.63;;;19.90;63.90;20.70;101651.00;;;;5006559;28;20202;-47
2023/10/01 01:15:46;;;;;;;4.90;4.40;;;19.70;63.70;20.70;101642.00;;;;5007893;28;20210;-48
2023/10/01 01:18:13;;;;;;;5.20;4.40;;;19.70;64.10;20.60;101648.00;;;;5006370;28;20655;-48
2023/10/01 01:20:46;;;;;;;5.07;4.57;;;19.70;64.00;20.60;101653.00;;;;5008152;28;20207;-47
2023/10/01 01:23:19;;;;;;;5.00;4.50;;;19.70;64.10;20.60;101636.00;;;;5008613;28;20206;-47
2023/10/01 01:25:46;;;;;;;5.60;4.53;;;19.60;64.20;20.60;101652.00;;;;5011492;28;20183;-47
2023/10/01 01:28:23;;;;;;;5.33;4.60;;;19.60;64.10;20.60;101642.00;;;;5011451;28;20555;-47
2023/10/01 01:30:50;;;;;;;4.83;4.33;;;19.60;64.30;20.50;101634.00;;;;5010090;28;20622;-48
2023/10/01 01:33:21;;;;;;;4.50;4.10;;;19.60;64.40;20.50;101631.00;;;;5010994;28;20215;-48
2023/10/01 01:35:49;;;;;;;4.50;4.10;;;19.70;64.30;20.50;101630.00;;;;5011297;28;20191;-46
2023/10/01 01:38:15;;;;;;;4.60;4.20;;;19.60;63.80;20.50;101636.00;;;;5011276;28;20199;-47
2023/10/01 01:40:42;;;;;;;5.00;4.47;;;19.60;64.00;20.50;101632.00;;;;4993663;28;20556;-46
2023/10/01 01:43:21;;;;;;;4.77;4.23;;;19.60;63.90;20.50;101641.00;;;;5011250;28;20751;-46
2023/10/01 01:45:54;;;;;;;5.00;4.27;;;19.30;64.30;20.40;101632.00;;;;5018681;28;20181;-47
2023/10/01 01:48:30;;;;;;;7.73;4.40;;;19.50;64.60;20.40;101642.00;;;;5025952;28;20251;-48
2023/10/01 01:50:58;;;;;;;4.60;4.20;;;19.50;64.60;20.40;101557.00;;;;5011758;28;20177;-47
2023/10/01 01:53:35;;;;;;;4.77;4.23;;;19.50;64.40;20.40;101636.00;;;;5011199;28;20318;-48
2023/10/01 01:56:08;;;;;;;4.57;4.10;;;19.60;64.00;20.40;101643.00;;;;5005679;28;20182;-46
2023/10/01 01:58:35;;;;;;;6.53;4.33;;;19.60;64.30;20.40;101634.00;;;;5010684;28;20188;-49
2023/10/01 02:01:08;;;;;;;5.33;4.20;;;19.60;63.90;20.40;101634.00;;;;5025300;28;20251;-46
2023/10/01 02:03:37;;;;;;;4.87;4.37;;;19.70;64.10;20.40;101628.00;;;;5014388;28;20209;-47
2023/10/01 02:06:06;;;;;;;4.80;4.30;;;19.70;64.20;20.40;101620.00;;;;5010805;28;20187;-48
2023/10/01 02:08:54;;;;;;;4.90;4.40;;;19.70;64.10;20.40;101621.00;;;;5010672;28;20203;-47
2023/10/01 02:11:20;;;;;;;4.77;4.27;;;19.60;63.60;20.40;101628.00;;;;5010847;28;20234;-47
2023/10/01 02:13:48;;;;;;;4.70;4.20;;;19.50;64.10;20.40;101619.00;;;;5010475;28;20314;-47
2023/10/01 02:16:34;;;;;;;5.87;4.40;;;19.50;63.70;20.40;101603.00;;;;5008571;28;20192;-47
2023/10/01 02:19:11;;;;;;;4.57;4.17;;;19.40;64.10;20.30;101614.00;;;;5010354;28;20199;-47
2023/10/01 02:21:59;;;;;;;4.93;4.43;;;19.50;64.60;20.30;101618.00;;;;5010429;28;20184;-48
2023/10/01 02:27:09;;;;;;;4.80;4.30;;;19.30;64.00;20.30;101612.00;;;;5010486;28;20190;-48
2023/10/01 02:29:45;;;;;;;5.37;4.33;;;19.40;64.20;20.30;101608.00;;;;5009815;28;20267;-47
2023/10/01 02:32:14;;;;;;;5.47;4.30;;;19.30;64.20;20.20;101606.00;;;;5010357;28;20222;-47
2023/10/01 02:34:43;;;;;;;7.13;4.43;;;19.40;64.30;20.20;101604.00;;;;5009733;28;20186;-47
2023/10/01 02:37:09;;;;;;;5.40;4.73;;;19.30;63.80;20.20;101605.00;;;;5010234;28;20179;-47
2023/10/01 02:39:37;;;;;;;5.13;4.33;;;19.20;64.50;20.20;101607.00;;;;5009981;28;20192;-47
2023/10/01 02:44:33;;;;;;;4.73;4.30;;;19.00;65.00;20.10;101621.00;;;;5010184;28;20211;-47
2023/10/01 02:47:18;;;;;;;5.07;4.57;;;19.10;64.80;20.10;101604.00;;;;5009735;28;20260;-47
2023/10/01 02:49:49;;;;;;;5.07;4.23;;;19.10;65.00;20.10;101605.00;;;;5009705;28;20177;-47
2023/10/01 02:52:18;;;;;;;5.00;4.10;;;19.10;64.50;20.10;101600.00;;;;5008601;28;20208;-49
2023/10/01 02:54:47;;;;;;;4.60;4.10;;;19.20;64.70;20.10;101602.00;;;;5009654;28;20179;-47
2023/10/01 02:57:23;;;;;;;4.70;4.13;;;19.20;64.50;20.10;101603.00;;;;5009883;28;20183;-47
2023/10/01 03:02:38;;;;;;;4.70;4.00;;;19.30;64.30;20.10;101601.00;;;;5011286;28;20210;-47
2023/10/01 03:05:16;;;;;;;4.70;3.93;;;19.30;64.70;20.10;101602.00;;;;5011064;28;20190;-47
2023/10/01 03:07:45;;;;;;;5.37;4.10;;;19.30;64.60;20.10;101599.00;;;;5011172;28;20260;-47
2023/10/01 03:10:25;;;;;;;6.63;4.53;;;19.30;64.30;20.10;101596.00;;;;5010793;28;20168;-47
2023/10/01 03:12:55;;;;;;;5.97;4.67;;;19.30;64.50;20.10;101594.00;;;;5010861;28;20257;-48
2023/10/01 03:15:24;;;;;;;5.60;4.27;;;19.30;64.20;19.80;101604.00;;;;5006768;28;20180;-47
2023/10/01 03:17:56;;;;;;;5.50;4.53;;;19.30;64.30;20.00;101596.00;;;;5010538;28;20188;-47
2023/10/01 03:23:26;;;;;;;5.50;4.10;;;19.20;64.60;20.00;101603.00;;;;5010542;28;20208;-47
2023/10/01 03:26:00;;;;;;;5.47;4.20;;;19.30;64.50;20.00;101606.00;;;;5010463;28;20647;-47
2023/10/01 03:28:31;;;;;;;7.53;4.47;;;19.20;64.60;20.00;101607.00;;;;5010688;28;20180;-47
2023/10/01 03:31:08;;;;;;;5.87;4.30;;;19.30;64.90;20.00;101599.00;;;;5009473;28;20727;-46
2023/10/01 03:33:40;;;;;;;6.03;4.13;;;19.20;64.90;20.00;101602.00;;;;5010569;28;20206;-47
2023/10/01 03:36:10;;;;;;;6.03;4.20;;;19.20;64.70;20.00;101616.00;;;;5010567;28;20222;-47
2023/10/01 03:38:47;;;;;;;5.00;4.20;;;19.30;64.90;20.00;101619.00;;;;5010099;28;20183;-47
2023/10/01 03:41:22;;;;;;;6.30;4.73;;;19.20;64.30;20.00;101619.00;;;;5012681;28;20175;-47
2023/10/01 03:43:50;;;;;;;7.03;5.00;;;19.20;64.70;20.00;101616.00;;;;5031760;28;20215;-47
2023/10/01 03:51:58;;;;;;;8.20;4.67;;;19.20;64.60;20.00;101621.00;;;;5011831;28;20229;-47
2023/10/01 03:57:16;;;;;;;4.77;4.27;;;19.10;64.80;19.90;101621.00;;;;5020565;28;20203;-50
2023/10/01 03:59:51;;;;;;;6.13;4.20;;;19.20;64.60;19.90;101604.00;;;;5011708;28;20663;-46
2023/10/01 04:05:30;;;;;;;4.50;4.10;;;19.20;64.60;19.90;101609.00;;;;5010257;28;20681;-47
2023/10/01 04:07:59;;;;;;;5.27;4.33;;;19.20;64.30;19.90;101612.00;;;;5010017;28;20206;-48
2023/10/01 04:12:58;;;;;;;7.47;4.50;;;19.10;64.50;19.90;101606.00;;;;5005886;28;20245;-47
2023/10/01 04:15:30;;;;;;;5.27;4.37;;;19.10;64.50;19.90;101618.00;;;;5007907;28;20605;-48
2023/10/01 04:18:19;;;;;;;7.43;4.60;;;19.10;64.60;19.80;101616.00;;;;5007723;28;20191;-46
2023/10/01 04:20:49;;;;;;;4.87;4.13;;;19.10;64.60;19.80;101609.00;;;;5009233;28;20184;-48
2023/10/01 04:23:23;;;;;;;4.77;4.20;;;19.10;65.20;19.80;101615.00;;;;5007659;28;20214;-47
2023/10/01 04:25:51;;;;;;;6.13;4.07;;;19.00;64.90;19.80;101616.00;;;;5009044;28;20245;-48
2023/10/01 04:28:20;;;;;;;4.60;4.10;;;19.10;65.00;19.80;101615.00;;;;5008826;28;20642;-48
2023/10/01 04:30:51;;;;;;;7.13;4.20;;;19.00;65.00;19.80;101617.00;;;;5009121;28;20179;-48
2023/10/01 04:33:25;;;;;;;5.37;4.30;;;19.00;65.20;19.80;101606.00;;;;5008979;28;20736;-48
2023/10/01 04:35:58;;;;;;;8.37;4.37;;;19.00;65.30;19.80;101607.00;;;;5008539;28;20181;-47
2023/10/01 04:38:32;;;;;;;6.43;4.30;;;19.00;65.30;19.80;101608.00;;;;5009031;28;20664;-48
2023/10/01 04:40:58;;;;;;;7.23;4.50;;;19.00;65.60;19.80;101606.00;;;;5009350;28;20210;-47
2023/10/01 04:43:26;;;;;;;8.63;4.47;;;19.00;65.20;19.80;101617.00;;;;5009080;28;20286;-47
2023/10/01 04:45:52;;;;;;;7.87;4.30;;;19.00;65.00;19.80;101624.00;;;;5008799;28;20184;-47
2023/10/01 04:48:25;;;;;;;6.27;4.50;;;19.00;64.90;19.80;101613.00;;;;5008435;28;20176;-48
2023/10/01 04:50:55;;;;;;;4.53;3.80;;;19.00;64.90;19.70;101614.00;;;;5008000;28;20714;-47
2023/10/01 04:53:25;;;;;;;6.93;4.53;;;19.00;65.40;19.70;101608.00;;;;5009000;28;20269;-50
2023/10/01 04:56:00;;;;;;;5.77;4.50;;;18.90;64.90;19.70;101618.00;;;;5007885;28;20189;-47
2023/10/01 04:58:29;;;;;;;4.77;4.07;;;18.90;64.90;19.70;101624.00;;;;5009429;28;20684;-47
2023/10/01 05:00:55;;;;;;;6.30;4.00;;;19.00;65.00;19.70;101609.00;;;;5007410;28;20347;-47
2023/10/01 05:03:40;;;;;;;4.97;4.43;;;18.90;64.70;19.70;101623.00;;;;5011699;28;20884;-47
2023/10/01 05:06:19;;;;;;;4.90;4.20;;;18.90;65.10;19.70;101621.00;;;;5012745;28;20612;-47
2023/10/01 05:08:47;;;;;;;4.47;3.73;;;18.90;65.10;19.70;101625.00;;;;5012560;28;20211;-48
2023/10/01 05:11:16;;;;;;;5.47;4.47;;;18.90;65.20;19.70;101624.00;;;;5012589;28;20172;-48
2023/10/01 05:13:48;;;;;;;4.77;3.80;;;18.90;65.20;19.60;101614.00;;;;5012546;28;20678;-48
2023/10/01 05:16:18;;;;;;;6.10;4.33;;;18.90;65.10;19.60;101620.00;;;;5012572;28;20594;-48
2023/10/01 05:18:45;;;;;;;5.83;4.40;;;18.90;65.10;19.60;101621.00;;;;5012331;28;20202;-48
2023/10/01 05:21:12;;;;;;;5.00;4.37;;;18.80;65.20;19.60;101617.00;;;;5012563;28;20184;-48
2023/10/01 05:23:43;;;;;;;4.93;4.07;;;18.80;65.40;19.60;101614.00;;;;5012055;28;20235;-48
2023/10/01 05:26:09;;;;;;;4.17;3.77;;;18.70;64.90;19.60;101621.00;;;;5012264;28;20172;-48
2023/10/01 05:28:36;;;;;;;4.33;3.67;;;18.80;65.30;19.50;101609.00;;;;5011871;28;20176;-46
2023/10/01 05:31:06;;;;;;;4.40;3.93;;;18.80;65.00;19.50;101608.00;;;;5012368;28;20179;-46
2023/10/01 05:33:33;;;;;;;5.07;4.00;;;18.80;65.00;19.60;101625.00;;;;5012211;28;20887;-49
2023/10/01 05:36:04;;;;;;;4.50;4.00;;;18.80;65.00;19.50;101616.00;;;;5012192;28;20659;-47
2023/10/01 05:38:34;;;;;;;4.80;3.90;;;18.80;65.30;19.50;101619.00;;;;5030827;28;20240;-47
2023/10/01 05:41:03;;;;;;;4.77;4.00;;;18.80;65.00;19.30;101609.00;;;;5017904;28;20171;-47
2023/10/01 05:43:35;;;;;;;5.40;4.30;;;18.80;64.70;19.50;101621.00;;;;5012350;28;20207;-47
2023/10/01 05:46:01;;;;;;;4.97;4.00;;;18.80;65.20;19.50;101629.00;;;;5011377;28;20229;-50
2023/10/01 05:48:32;;;;;;;6.23;4.13;;;18.60;64.90;19.50;101621.00;;;;5011393;28;20172;-47
2023/10/01 05:50:58;;;;;;;5.00;4.23;;;18.70;65.10;19.50;101625.00;;;;5011076;28;20847;-47
2023/10/01 05:53:25;;;;;;;4.83;4.17;;;18.70;65.10;19.50;101624.00;;;;5023371;28;20207;-47
2023/10/01 05:55:50;;;;;;;4.30;3.90;;;18.70;64.90;19.50;101629.00;;;;5012056;28;20196;-47
2023/10/01 05:58:16;;;;;;;4.77;4.17;;;18.60;65.20;19.50;101560.00;;;;5011498;28;20212;-52
2023/10/01 06:00:57;;;;;;;4.20;3.80;;;18.60;65.20;19.40;101630.00;;;;5011853;28;20199;-47
2023/10/01 06:03:25;;;;;;;5.53;4.23;;;18.60;65.20;19.40;101624.00;;;;5010206;28;20231;-47
2023/10/01 06:06:06;;;;;;;6.10;4.20;;;18.60;65.20;19.40;101633.00;;;;5011558;28;20175;-47
2023/10/01 06:08:32;;;;;;;4.77;4.27;;;18.60;65.20;19.40;101621.00;;;;5010701;28;20186;-47
2023/10/01 06:11:09;;;;;;;4.77;4.27;;;18.60;65.80;19.40;101624.00;;;;5010503;28;20195;-48
2023/10/01 06:13:38;;;;;;;5.33;4.50;;;18.60;65.00;19.40;101619.00;;;;5011470;28;20218;-47
2023/10/01 06:16:11;;;;;;;5.70;4.23;;;18.50;64.80;19.30;101622.00;;;;5009810;28;20203;-47
2023/10/01 06:18:50;;;;;;;4.60;4.20;;;18.50;65.10;19.30;101597.00;;;;5011145;28;20643;-46
2023/10/01 06:21:20;;;;;;;5.00;4.50;;;18.40;65.60;19.30;101623.00;;;;5010270;28;20203;-47
2023/10/01 06:23:52;;;;;;;4.40;4.00;;;18.40;65.20;19.30;101624.00;;;;5011366;28;20208;-47
2023/10/01 06:26:42;;;;;;;5.70;4.20;;;18.50;65.50;19.30;101624.00;;;;5011378;28;20195;-47
2023/10/01 06:29:10;;;;;;;5.30;4.57;;;18.40;65.40;19.30;101635.00;;;;5010153;28;20203;-47
2023/10/01 06:34:26;;;;;;;4.90;4.40;;;18.30;65.40;19.20;101631.00;;;;5010183;28;20199;-46
2023/10/01 06:36:58;;;;;;;5.43;4.20;;;18.40;66.00;19.20;101623.00;;;;5010789;28;20207;-47
2023/10/01 06:39:30;;;;;;;5.57;4.47;;;18.40;65.70;19.20;101623.00;;;;5009975;28;20724;-46
2023/10/01 06:44:41;;;;;;;5.00;4.47;;;18.30;65.70;19.20;101624.00;;;;5007912;28;20257;-47
2023/10/01 06:47:14;;;;;;;5.83;4.50;;;18.40;66.00;19.20;101621.00;;;;5008350;28;20199;-47
2023/10/01 06:52:35;;;;;;;5.30;4.53;;;18.30;65.80;19.20;101636.00;;;;5010179;28;20593;-47
2023/10/01 06:55:01;;;;;;;5.20;4.67;;;18.40;66.10;19.20;101641.00;;;;5007140;28;20659;-46
2023/10/01 06:57:30;;;;;;;5.80;4.70;;;18.40;65.80;19.20;101644.00;;;;5007986;28;20188;-46
2023/10/01 06:59:56;;;;;;;5.27;4.60;;;18.40;65.80;19.20;101634.00;;;;5006416;28;20191;-47
2023/10/01 07:02:25;;;;;;;6.43;5.20;;;18.30;66.20;19.20;101634.00;;;;5011486;28;20808;-46
2023/10/01 07:04:56;;;;;;;6.10;4.53;;;18.30;66.30;19.20;101640.00;;;;5008866;28;20736;-47
2023/10/01 07:07:26;;;;;;;6.10;4.80;;;18.30;66.40;19.20;101632.00;;;;5009119;28;20187;-47
2023/10/01 07:09:56;;;;;;;5.00;4.50;;;18.30;66.40;19.20;101629.00;;;;5009438;28;20186;-47
2023/10/01 07:12:23;;;;;;;7.20;5.00;;;18.30;66.50;19.20;101624.00;;;;5010051;28;20919;-47
2023/10/01 07:14:50;;;;;;;6.00;5.03;;;18.30;66.70;19.20;101636.00;;;;5008690;28;20184;-46
2023/10/01 07:17:24;;;;;;;6.77;5.07;;;18.30;67.00;19.20;101642.00;;;;5009623;28;20211;-46
2023/10/01 07:20:00;;;;;;;6.57;5.10;;;18.20;67.10;19.10;101645.00;;;;5009559;28;20238;-47
2023/10/01 07:22:32;;;;;;;14.10;5.60;;;18.30;67.20;19.10;101646.00;;;;5010026;28;20630;-47
2023/10/01 07:25:02;;;;;;;11.23;5.43;;;18.30;67.00;19.10;101649.00;;;;5009304;28;20597;-47
2023/10/01 07:27:28;;;;;;;11.27;5.07;;;18.40;67.20;19.10;101644.00;;;;5008395;28;20326;-47
2023/10/01 07:29:57;;;;;;;7.87;5.00;;;18.40;67.00;19.20;101646.00;;;;5008227;28;20594;-51
2023/10/01 07:32:24;;;;;;;11.00;5.10;;;18.40;67.20;19.20;101650.00;;;;5014194;28;20214;-48
2023/10/01 07:34:59;;;;;;;12.07;5.43;;;18.50;67.20;19.20;101642.00;;;;5026985;28;20227;-48
2023/10/01 07:37:31;;;;;;;10.43;5.00;;;18.50;67.20;19.20;101646.00;;;;5009908;28;20258;-47
2023/10/01 07:40:17;;;;;;;8.07;4.93;;;18.50;67.20;19.20;101651.00;;;;5008699;28;20628;-46
2023/10/01 07:42:54;;;;;;;10.23;4.43;;;18.50;67.10;19.20;101644.00;;;;5009978;28;20204;-46
2023/10/01 07:45:20;;;;;;;5.63;4.20;;;18.50;67.20;19.20;101645.00;;;;5008831;28;20175;-47
2023/10/01 07:47:48;;;;;;;7.43;4.70;;;18.50;67.10;19.20;101648.00;;;;5015257;28;20183;-49
2023/10/01 07:50:13;;;;;;;8.20;4.63;;;18.50;67.20;19.30;101640.00;;;;5002671;28;20183;-46
2023/10/01 07:52:41;;;;;;;6.70;4.53;;;18.50;67.10;19.30;101645.00;;;;5015250;28;20763;-47
2023/10/01 07:55:30;;;;;;;9.23;4.93;;;18.50;67.20;19.30;101643.00;;;;5008508;28;20199;-48
2023/10/01 08:00:43;;;;;;;5.97;4.10;;;18.60;67.40;19.30;101651.00;;;;5009193;28;20277;-48
2023/10/01 08:05:48;;;;;;;6.03;4.30;;;18.60;67.40;19.30;101655.00;;;;5010064;28;20685;-48
2023/10/01 08:11:55;;;;;;;7.37;4.30;;;18.60;67.50;19.30;101647.00;;;;5009290;28;20676;-47
2023/10/01 08:13:55;;;;;;;6.00;4.10;;;18.50;67.50;19.30;101636.00;;;;5008695;28;20229;-47
2023/10/01 08:16:22;;;;;;;7.23;4.60;;;18.60;67.60;19.30;101637.00;;;;5006096;28;20218;-47
2023/10/01 08:18:51;;;;;;;7.63;4.43;;;18.60;67.80;19.30;101643.00;;;;5007827;28;20195;-48
2023/10/01 08:21:17;;;;;;;7.90;4.40;;;18.60;67.70;19.30;101640.00;;;;5009386;28;20184;-47
2023/10/01 08:23:48;;;;;;;5.67;4.20;;;18.70;67.90;19.30;101649.00;;;;5008615;28;20204;-47
2023/10/01 08:28:59;;;;;;;5.40;4.30;;;18.60;67.90;19.40;101647.00;;;;5008445;28;20187;-47
2023/10/01 08:34:28;;;;;;;4.83;4.13;;;18.60;67.90;19.40;101649.00;;;;5008540;28;20190;-47
2023/10/01 08:36:58;;;;;;;6.17;4.50;;;18.70;68.00;19.40;101652.00;;;;5009151;28;20183;-47
2023/10/01 08:39:34;;;;;;;4.50;4.00;;;18.70;68.00;19.40;101651.00;;;;5008631;28;20191;-47
2023/10/01 08:42:08;;;;;;;5.67;4.13;;;18.70;68.00;19.40;101655.00;;;;5003948;28;20714;-48
2023/10/01 08:44:51;;;;;;;5.40;4.30;;;18.70;68.00;19.40;101653.00;;;;5009264;28;20385;-49
2023/10/01 08:47:31;;;;;;;5.20;4.13;;;18.70;68.30;19.40;101658.00;;;;5008080;28;20218;-46
2023/10/01 08:52:55;;;;;;;4.60;4.20;;;18.70;68.50;19.40;101646.00;;;;5008813;28;20342;-47
2023/10/01 08:55:35;;;;;;;7.50;4.63;;;18.70;68.60;19.40;101650.00;;;;5008801;28;20812;-47
2023/10/01 08:58:48;;;;;;;4.90;4.20;;;18.70;68.70;19.40;101647.00;;;;5005415;28;20190;-46
2023/10/01 09:01:12;;;;;;;6.57;4.33;;;18.70;68.90;19.50;101640.00;;;;5002508;28;20219;-47
2023/10/01 09:03:39;;;;;;;6.10;4.40;;;18.80;69.10;19.50;101648.00;;;;5008907;28;20215;-47
2023/10/01 09:06:06;;;;;;;5.37;4.20;;;18.80;69.70;19.50;101646.00;;;;5008916;28;20187;-47
2023/10/01 09:08:42;;;;;;;5.77;3.80;;;18.70;69.50;19.50;101654.00;;;;5008215;28;20179;-47
2023/10/01 09:11:15;;;;;;;7.77;4.80;;;18.80;69.70;19.50;101649.00;;;;5008619;28;20226;-47
2023/10/01 09:13:47;;;;;;;6.80;4.47;;;18.80;70.20;19.50;101649.00;;;;5008035;28;20193;-46
2023/10/01 09:16:13;;;;;;;7.80;4.87;;;18.80;70.90;19.50;101650.00;;;;5008998;28;20200;-48
2023/10/01 09:19:03;;;;;;;7.80;4.50;;;18.90;71.20;19.60;101648.00;;;;5007123;28;20234;-47
2023/10/01 09:21:38;;;;;;;7.83;4.57;;;18.90;71.50;19.60;101636.00;;;;5008743;28;20190;-48
2023/10/01 09:24:17;;;;;;;7.33;4.33;;;18.90;71.80;19.60;101651.00;;;;5007679;28;20208;-47
2023/10/01 09:27:08;;;;;;;5.60;4.17;;;18.90;72.00;19.60;101630.00;;;;5009010;28;20187;-47
2023/10/01 09:29:43;;;;;;;6.37;3.97;;;18.90;72.10;19.60;101642.00;;;;4992126;28;20232;-47
2023/10/01 09:32:11;;;;;;;7.53;4.87;;;18.90;72.50;19.60;101641.00;;;;5026715;28;20294;-47
2023/10/01 09:34:46;;;;;;;8.13;4.43;;;18.90;72.30;19.60;101641.00;;;;5012272;28;20185;-47
2023/10/01 09:40:12;;;;;;;6.43;4.37;;;19.00;72.60;19.70;101646.00;;;;5006997;28;20190;-48
2023/10/01 09:42:44;;;;;;;5.60;4.60;;;19.00;72.90;19.70;101637.00;;;;5008551;28;20739;-48
2023/10/01 09:45:26;;;;;;;9.23;4.53;;;19.00;73.00;19.70;101647.00;;;;5015659;28;20725;-48
2023/10/01 09:48:07;;;;;;;8.30;4.50;;;19.00;73.00;19.70;101641.00;;;;5020980;28;20191;-47
2023/10/01 09:50:39;;;;;;;7.50;4.40;;;19.10;73.10;19.70;101649.00;;;;5011107;28;20186;-48
2023/10/01 09:53:13;;;;;;;6.43;4.57;;;19.10;73.30;19.70;101649.00;;;;5012304;28;20217;-47
2023/10/01 09:55:48;;;;;;;7.93;4.60;;;19.10;73.30;19.80;101646.00;;;;5010917;28;20289;-48
2023/10/01 09:58:29;;;;;;;8.20;4.60;;;19.10;73.70;19.80;101643.00;;;;5010530;28;20211;-49
2023/10/01 10:01:01;;;;;;;6.77;4.87;;;19.20;73.80;19.80;101638.00;;;;5011794;28;20757;-48
2023/10/01 10:03:38;;;;;;;8.87;5.00;;;19.10;73.70;19.80;101642.00;;;;5011624;28;20638;-48
2023/10/01 10:06:08;;;;;;;6.43;4.93;;;19.20;73.90;19.80;101630.00;;;;5010712;28;20263;-47
2023/10/01 10:08:39;;;;;;;6.50;4.50;;;19.20;73.60;19.90;101630.00;;;;5011202;28;20695;-47
2023/10/01 10:11:13;;;;;;;6.10;4.53;;;19.20;73.90;19.90;101642.00;;;;5007483;28;20180;-48
2023/10/01 10:13:47;;;;;;;6.13;4.33;;;19.20;73.90;19.90;101625.00;;;;4979871;28;20195;-48
2023/10/01 10:16:32;;;;;;;7.40;4.57;;;19.30;74.10;19.90;101630.00;;;;5011617;28;20192;-48
2023/10/01 10:19:09;;;;;;;5.80;4.30;;;19.20;74.00;20.00;101623.00;;;;5011126;28;20192;-48
2023/10/01 10:22:08;;;;;;;7.27;4.50;;;19.30;74.40;20.00;101622.00;;;;5011865;28;20279;-47
2023/10/01 10:24:47;;;;;;;5.60;4.30;;;19.30;74.60;20.00;101625.00;;;;5011323;28;20257;-48
2023/10/01 10:27:26;;;;;;;5.53;4.53;;;19.30;74.70;20.00;101620.00;;;;5010367;28;20241;-47
2023/10/01 10:29:58;;;;;;;8.77;4.93;;;19.30;74.80;20.00;101619.00;;;;5010766;28;20236;-47
2023/10/01 10:32:27;;;;;;;6.43;4.47;;;19.40;74.50;20.10;101614.00;;;;5010972;28;20204;-47
2023/10/01 10:35:04;;;;;;;6.23;4.83;;;19.40;74.10;20.10;101604.00;;;;5010828;28;20219;-48
2023/10/01 10:37:39;;;;;;;6.93;4.57;;;19.30;74.10;20.10;101609.00;;;;5010312;28;20187;-48
2023/10/01 10:43:04;;;;;;;10.10;5.07;;;19.40;74.30;20.10;101598.00;;;;5010275;28;20214;-48
2023/10/01 10:45:43;;;;;;;6.57;4.67;;;19.50;74.30;20.20;101591.00;;;;5009462;28;20371;-46
2023/10/01 10:48:10;;;;;;;10.50;4.73;;;19.50;74.40;20.20;101599.00;;;;5010692;28;20207;-47
2023/10/01 10:50:57;;;;;;;7.13;4.50;;;19.50;74.40;20.20;101590.00;;;;5009560;28;20209;-47
2023/10/01 10:53:40;;;;;;;5.97;4.53;;;19.50;74.30;20.30;101584.00;;;;5009929;28;20729;-48
2023/10/01 10:56:10;;;;;;;7.93;4.60;;;19.60;74.50;20.30;101581.00;;;;5009775;28;20186;-47
2023/10/01 10:59:01;;;;;;;8.87;4.70;;;19.60;74.60;20.30;101584.00;;;;5010625;28;20264;-47
2023/10/01 11:01:43;;;;;;;5.97;4.77;;;19.60;75.40;20.40;101583.00;;;;5010903;28;20258;-48
2023/10/01 11:04:09;;;;;;;6.57;4.53;;;19.70;74.90;20.40;101587.00;;;;5010529;28;20691;-47
2023/10/01 11:07:04;;;;;;;6.10;4.63;;;19.70;74.30;20.40;101588.00;;;;5009451;28;20269;-47
2023/10/01 11:09:32;;;;;;;6.03;4.47;;;19.70;75.10;20.50;101583.00;;;;5009832;28;20679;-48
2023/10/01 11:12:05;;;;;;;7.37;5.30;;;19.70;74.90;20.50;101587.00;;;;5010736;28;20284;-48
2023/10/01 11:14:36;;;;;;;13.23;5.50;;;19.80;75.80;20.50;101577.00;;;;5013459;28;20183;-47
2023/10/01 11:17:02;;;;;;;11.60;5.43;;;19.80;75.80;20.50;101578.00;;;;5013738;28;20257;-47
2023/10/01 11:19:35;;;;;;;10.30;5.33;;;19.80;75.90;20.60;101575.00;;;;5010712;28;20696;-48
2023/10/01 11:22:03;;;;;;;9.73;5.03;;;19.80;75.80;20.60;101576.00;;;;5010000;28;20644;-49
2023/10/01 11:24:39;;;;;;;9.20;5.17;;;19.90;75.70;20.70;101579.00;;;;5010128;28;20204;-48
2023/10/01 11:30:12;;;;;;;10.60;5.57;;;20.00;76.00;20.70;101579.00;;;;5012174;28;21237;-47
2023/10/01 11:36:35;;;;;;;10.40;5.10;;;20.00;76.80;20.80;101572.00;;;;5002565;28;20201;-47
2023/10/01 11:38:45;;;;;;;11.70;5.40;;;20.00;76.70;20.80;101548.00;;;;5004816;28;20238;-46
2023/10/01 11:41:11;;;;;;;7.50;5.10;;;20.10;76.60;20.90;101566.00;;;;5010628;28;20282;-47
2023/10/01 11:43:45;;;;;;;9.63;5.07;;;20.10;76.50;20.90;101563.00;;;;5010735;28;20807;-47
2023/10/01 11:46:25;;;;;;;8.07;5.17;;;20.10;76.40;20.90;101552.00;;;;5029191;28;20176;-48
2023/10/01 11:49:18;;;;;;;7.77;5.13;;;20.20;76.20;21.00;101563.00;;;;5015179;28;20222;-48
2023/10/01 11:51:48;;;;;;;8.33;4.93;;;20.20;75.80;21.00;101558.00;;;;5009917;28;20286;-47
2023/10/01 11:54:21;;;;;;;8.20;5.37;;;20.30;75.80;21.00;101555.00;;;;5010545;28;20257;-48
2023/10/01 11:57:22;;;;;;;7.53;5.00;;;20.30;75.80;21.00;101558.00;;;;5009743;28;20195;-48
2023/10/01 11:59:58;;;;;;;7.47;4.67;;;20.30;75.80;21.10;101550.00;;;;5010049;28;20209;-46
2023/10/01 12:02:32;;;;;;;6.83;4.93;;;20.40;76.00;21.10;101544.00;;;;5010148;28;20205;-48
2023/10/01 12:05:07;;;;;;;5.90;4.93;;;20.40;76.00;21.10;101538.00;;;;5010105;28;20225;-47
2023/10/01 12:07:40;;;;;;;6.57;5.37;;;20.40;75.80;21.20;101532.00;;;;5008202;28;20186;-46
2023/10/01 12:10:07;;;;;;;7.00;5.23;;;20.50;76.10;21.20;101543.00;;;;5004930;28;20177;-47
2023/10/01 12:12:38;;;;;;;7.63;4.90;;;20.50;75.90;21.20;101535.00;;;;5008825;28;20191;-47